sensor_id;sensor_type;location;lat;lon;timestamp;P1;durP1;ratioP1;P2;durP2;ratioP2
60718;SDS011;46567;51.660;5.824;2023-07-13T00:02:38;4.4;;;2.0;;
60718;SDS011;46567;51.660;5.824;2023-07-13T00:07:38;6.1;;;2.0;;
60718;SDS011;46567;51.660;5.824;2023-07-13T00:12:38;5.5;;;2.1;;
60718;SDS011;46567;51.660;5.824;2023-07-13T00:22:38;8.3;;;2.3;;
60718;SDS011;46567;51.660;5.824;2023-07-13T00:27:38;5.7;;;2.2;;
60718;SDS011;46567;51.660;5.824;2023-07-13T00:32:38;6.2;;;2.6;;
60718;SDS011;46567;51.660;5.824;2023-07-13T00:37:38;7.4;;;2.3;;
60718;SDS011;46567;51.660;5.824;2023-07-13T00:42:38;5.8;;;2.0;;
60718;SDS011;46567;51.660;5.824;2023-07-13T00:47:38;7.9;;;1.9;;
60718;SDS011;46567;51.660;5.824;2023-07-13T00:52:40;6.2;;;1.9;;
60718;SDS011;46567;51.660;5.824;2023-07-13T00:57:38;6.7;;;1.9;;
60718;SDS011;46567;51.660;5.824;2023-07-13T01:02:42;6.9;;;2.0;;
60718;SDS011;46567;51.660;5.824;2023-07-13T01:07:38;6.6;;;1.8;;
60718;SDS011;46567;51.660;5.824;2023-07-13T01:12:38;9.7;;;2.0;;
60718;SDS011;46567;51.660;5.824;2023-07-13T01:17:38;3.9;;;1.7;;
60718;SDS011;46567;51.660;5.824;2023-07-13T01:22:38;6.3;;;2.2;;
60718;SDS011;46567;51.660;5.824;2023-07-13T01:27:38;3.8;;;1.7;;
60718;SDS011;46567;51.660;5.824;2023-07-13T01:32:38;6.6;;;1.9;;
60718;SDS011;46567;51.660;5.824;2023-07-13T01:37:38;6.1;;;1.9;;
60718;SDS011;46567;51.660;5.824;2023-07-13T01:42:38;7.4;;;2.2;;
60718;SDS011;46567;51.660;5.824;2023-07-13T01:47:38;4.3;;;1.9;;
60718;SDS011;46567;51.660;5.824;2023-07-13T01:52:38;5.6;;;2.2;;
60718;SDS011;46567;51.660;5.824;2023-07-13T01:57:38;4.6;;;1.8;;
60718;SDS011;46567;51.660;5.824;2023-07-13T02:02:38;6.1;;;2.1;;
60718;SDS011;46567;51.660;5.824;2023-07-13T02:07:38;6.5;;;2.5;;
60718;SDS011;46567;51.660;5.824;2023-07-13T02:12:38;5.7;;;2.3;;
60718;SDS011;46567;51.660;5.824;2023-07-13T02:17:38;5.6;;;2.5;;
60718;SDS011;46567;51.660;5.824;2023-07-13T02:22:38;9.0;;;2.9;;
60718;SDS011;46567;51.660;5.824;2023-07-13T02:27:38;7.2;;;3.2;;
60718;SDS011;46567;51.660;5.824;2023-07-13T02:32:38;8.9;;;3.3;;
60718;SDS011;46567;51.660;5.824;2023-07-13T02:37:38;7.9;;;3.0;;
60718;SDS011;46567;51.660;5.824;2023-07-13T02:42:38;10.9;;;3.1;;
60718;SDS011;46567;51.660;5.824;2023-07-13T02:47:39;7.1;;;2.8;;
60718;SDS011;46567;51.660;5.824;2023-07-13T02:52:38;6.1;;;2.7;;
60718;SDS011;46567;51.660;5.824;2023-07-13T02:57:38;6.6;;;2.1;;
60718;SDS011;46567;51.660;5.824;2023-07-13T03:02:38;7.1;;;2.2;;
60718;SDS011;46567;51.660;5.824;2023-07-13T03:07:38;5.6;;;2.5;;
60718;SDS011;46567;51.660;5.824;2023-07-13T03:12:38;6.6;;;2.5;;
60718;SDS011;46567;51.660;5.824;2023-07-13T03:17:38;8.1;;;2.1;;
60718;SDS011;46567;51.660;5.824;2023-07-13T03:22:38;5.3;;;1.9;;
60718;SDS011;46567;51.660;5.824;2023-07-13T03:27:38;4.1;;;2.3;;
60718;SDS011;46567;51.660;5.824;2023-07-13T03:32:38;5.2;;;2.0;;
60718;SDS011;46567;51.660;5.824;2023-07-13T03:37:38;5.0;;;2.3;;
60718;SDS011;46567;51.660;5.824;2023-07-13T03:42:38;5.8;;;2.1;;
60718;SDS011;46567;51.660;5.824;2023-07-13T03:47:38;5.9;;;2.0;;
60718;SDS011;46567;51.660;5.824;2023-07-13T03:52:38;7.7;;;2.6;;
60718;SDS011;46567;51.660;5.824;2023-07-13T03:57:38;6.4;;;2.2;;
60718;SDS011;46567;51.660;5.824;2023-07-13T04:02:38;4.4;;;2.5;;
60718;SDS011;46567;51.660;5.824;2023-07-13T04:07:38;7.4;;;2.8;;
60718;SDS011;46567;51.660;5.824;2023-07-13T04:12:38;5.6;;;2.3;;
60718;SDS011;46567;51.660;5.824;2023-07-13T04:17:38;5.8;;;2.6;;
60718;SDS011;46567;51.660;5.824;2023-07-13T04:22:38;6.7;;;2.3;;
60718;SDS011;46567;51.660;5.824;2023-07-13T04:27:38;8.2;;;2.7;;
60718;SDS011;46567;51.660;5.824;2023-07-13T04:32:38;9.7;;;2.4;;
60718;SDS011;46567;51.660;5.824;2023-07-13T04:37:38;6.1;;;2.7;;
60718;SDS011;46567;51.660;5.824;2023-07-13T04:42:38;8.0;;;3.0;;
60718;SDS011;46567;51.660;5.824;2023-07-13T04:47:38;9.8;;;2.7;;
60718;SDS011;46567;51.660;5.824;2023-07-13T04:52:38;9.9;;;3.1;;
60718;SDS011;46567;51.660;5.824;2023-07-13T04:57:38;8.2;;;2.9;;
60718;SDS011;46567;51.660;5.824;2023-07-13T05:02:38;11.1;;;3.4;;
60718;SDS011;46567;51.660;5.824;2023-07-13T05:07:38;10.5;;;2.9;;
60718;SDS011;46567;51.660;5.824;2023-07-13T05:12:38;12.5;;;3.6;;
60718;SDS011;46567;51.660;5.824;2023-07-13T05:17:38;12.1;;;4.0;;
60718;SDS011;46567;51.660;5.824;2023-07-13T05:22:38;10.6;;;4.9;;
60718;SDS011;46567;51.660;5.824;2023-07-13T05:27:38;12.4;;;5.3;;
60718;SDS011;46567;51.660;5.824;2023-07-13T05:32:38;15.7;;;6.3;;
60718;SDS011;46567;51.660;5.824;2023-07-13T05:37:38;16.3;;;6.7;;
60718;SDS011;46567;51.660;5.824;2023-07-13T05:42:38;20.0;;;7.5;;
60718;SDS011;46567;51.660;5.824;2023-07-13T05:47:38;23.1;;;8.1;;
60718;SDS011;46567;51.660;5.824;2023-07-13T05:52:38;20.5;;;9.1;;
60718;SDS011;46567;51.660;5.824;2023-07-13T05:57:38;19.1;;;8.6;;
60718;SDS011;46567;51.660;5.824;2023-07-13T06:02:38;19.9;;;9.3;;
60718;SDS011;46567;51.660;5.824;2023-07-13T06:07:38;21.7;;;10.7;;
60718;SDS011;46567;51.660;5.824;2023-07-13T06:12:38;24.7;;;10.2;;
60718;SDS011;46567;51.660;5.824;2023-07-13T06:17:38;21.8;;;10.0;;
60718;SDS011;46567;51.660;5.824;2023-07-13T06:22:38;24.7;;;10.3;;
60718;SDS011;46567;51.660;5.824;2023-07-13T06:27:38;21.8;;;9.9;;
60718;SDS011;46567;51.660;5.824;2023-07-13T06:32:38;19.8;;;9.5;;
60718;SDS011;46567;51.660;5.824;2023-07-13T06:37:38;19.0;;;9.3;;
60718;SDS011;46567;51.660;5.824;2023-07-13T06:42:38;21.1;;;9.5;;
60718;SDS011;46567;51.660;5.824;2023-07-13T06:47:38;22.8;;;9.3;;
60718;SDS011;46567;51.660;5.824;2023-07-13T06:52:38;18.6;;;9.2;;
60718;SDS011;46567;51.660;5.824;2023-07-13T06:57:38;25.0;;;9.1;;
60718;SDS011;46567;51.660;5.824;2023-07-13T07:02:38;17.3;;;9.8;;
60718;SDS011;46567;51.660;5.824;2023-07-13T07:07:38;21.0;;;9.5;;
60718;SDS011;46567;51.660;5.824;2023-07-13T07:12:38;17.2;;;9.6;;
60718;SDS011;46567;51.660;5.824;2023-07-13T07:17:38;17.6;;;9.1;;
60718;SDS011;46567;51.660;5.824;2023-07-13T07:22:38;18.8;;;9.0;;
60718;SDS011;46567;51.660;5.824;2023-07-13T07:27:38;19.4;;;9.5;;
60718;SDS011;46567;51.660;5.824;2023-07-13T07:32:38;20.8;;;9.9;;
60718;SDS011;46567;51.660;5.824;2023-07-13T07:37:38;19.8;;;8.7;;
60718;SDS011;46567;51.660;5.824;2023-07-13T07:42:38;18.3;;;9.5;;
60718;SDS011;46567;51.660;5.824;2023-07-13T07:47:38;19.7;;;8.8;;
60718;SDS011;46567;51.660;5.824;2023-07-13T07:52:38;19.7;;;8.9;;
60718;SDS011;46567;51.660;5.824;2023-07-13T07:57:38;17.1;;;8.2;;
60718;SDS011;46567;51.660;5.824;2023-07-13T08:02:38;17.7;;;9.1;;
60718;SDS011;46567;51.660;5.824;2023-07-13T08:07:39;15.9;;;8.2;;
60718;SDS011;46567;51.660;5.824;2023-07-13T08:12:38;17.9;;;8.5;;
60718;SDS011;46567;51.660;5.824;2023-07-13T08:17:38;22.7;;;9.4;;
60718;SDS011;46567;51.660;5.824;2023-07-13T08:22:38;16.0;;;7.9;;
60718;SDS011;46567;51.660;5.824;2023-07-13T08:27:38;14.1;;;7.6;;
60718;SDS011;46567;51.660;5.824;2023-07-13T08:32:38;17.1;;;7.7;;
60718;SDS011;46567;51.660;5.824;2023-07-13T08:37:38;17.3;;;7.5;;
60718;SDS011;46567;51.660;5.824;2023-07-13T08:42:53;15.9;;;6.5;;
60718;SDS011;46567;51.660;5.824;2023-07-13T08:47:39;16.1;;;7.2;;
60718;SDS011;46567;51.660;5.824;2023-07-13T08:52:41;16.2;;;6.3;;
60718;SDS011;46567;51.660;5.824;2023-07-13T08:57:41;16.5;;;6.9;;
60718;SDS011;46567;51.660;5.824;2023-07-13T09:02:52;9.6;;;5.2;;
60718;SDS011;46567;51.660;5.824;2023-07-13T09:08:09;12.8;;;5.3;;
60718;SDS011;46567;51.660;5.824;2023-07-13T09:13:08;10.3;;;5.0;;
60718;SDS011;46567;51.660;5.824;2023-07-13T09:17:40;10.5;;;5.9;;
60718;SDS011;46567;51.660;5.824;2023-07-13T09:22:40;9.5;;;5.0;;
60718;SDS011;46567;51.660;5.824;2023-07-13T09:27:42;9.5;;;4.4;;
60718;SDS011;46567;51.660;5.824;2023-07-13T09:32:41;9.4;;;5.0;;
60718;SDS011;46567;51.660;5.824;2023-07-13T09:37:38;7.7;;;4.9;;
60718;SDS011;46567;51.660;5.824;2023-07-13T09:42:38;12.4;;;4.6;;
60718;SDS011;46567;51.660;5.824;2023-07-13T09:47:39;8.9;;;4.7;;
60718;SDS011;46567;51.660;5.824;2023-07-13T09:52:44;8.8;;;4.1;;
60718;SDS011;46567;51.660;5.824;2023-07-13T09:57:38;10.2;;;3.9;;
60718;SDS011;46567;51.660;5.824;2023-07-13T10:02:38;7.0;;;3.7;;
60718;SDS011;46567;51.660;5.824;2023-07-13T10:07:38;9.6;;;4.2;;
60718;SDS011;46567;51.660;5.824;2023-07-13T10:12:38;11.1;;;4.0;;
60718;SDS011;46567;51.660;5.824;2023-07-13T10:17:38;11.5;;;3.9;;
60718;SDS011;46567;51.660;5.824;2023-07-13T10:23:02;5.4;;;3.9;;
60718;SDS011;46567;51.660;5.824;2023-07-13T10:27:38;8.8;;;3.9;;
60718;SDS011;46567;51.660;5.824;2023-07-13T10:32:38;5.9;;;3.0;;
60718;SDS011;46567;51.660;5.824;2023-07-13T10:37:44;8.0;;;3.6;;
60718;SDS011;46567;51.660;5.824;2023-07-13T10:42:41;7.0;;;3.6;;
60718;SDS011;46567;51.660;5.824;2023-07-13T10:47:38;9.1;;;4.3;;
60718;SDS011;46567;51.660;5.824;2023-07-13T10:52:52;7.7;;;3.4;;
60718;SDS011;46567;51.660;5.824;2023-07-13T10:57:42;7.7;;;3.4;;
60718;SDS011;46567;51.660;5.824;2023-07-13T11:02:38;6.8;;;2.9;;
60718;SDS011;46567;51.660;5.824;2023-07-13T11:07:52;6.1;;;2.8;;
60718;SDS011;46567;51.660;5.824;2023-07-13T11:12:54;4.4;;;2.6;;
60718;SDS011;46567;51.660;5.824;2023-07-13T11:17:48;5.1;;;2.6;;
60718;SDS011;46567;51.660;5.824;2023-07-13T11:22:48;7.2;;;2.5;;
60718;SDS011;46567;51.660;5.824;2023-07-13T11:27:40;3.8;;;2.2;;
60718;SDS011;46567;51.660;5.824;2023-07-13T11:32:38;3.6;;;2.6;;
60718;SDS011;46567;51.660;5.824;2023-07-13T11:37:38;6.0;;;3.0;;
60718;SDS011;46567;51.660;5.824;2023-07-13T11:42:38;3.9;;;2.3;;
60718;SDS011;46567;51.660;5.824;2023-07-13T11:47:40;6.0;;;2.9;;
60718;SDS011;46567;51.660;5.824;2023-07-13T11:52:38;5.4;;;2.9;;
60718;SDS011;46567;51.660;5.824;2023-07-13T11:57:39;5.7;;;3.5;;
60718;SDS011;46567;51.660;5.824;2023-07-13T12:02:54;7.6;;;4.1;;
60718;SDS011;46567;51.660;5.824;2023-07-13T12:07:38;4.9;;;3.1;;
60718;SDS011;46567;51.660;5.824;2023-07-13T12:12:40;4.5;;;2.4;;
60718;SDS011;46567;51.660;5.824;2023-07-13T12:17:38;3.5;;;2.5;;
60718;SDS011;46567;51.660;5.824;2023-07-13T12:22:38;4.9;;;3.5;;
60718;SDS011;46567;51.660;5.824;2023-07-13T12:27:38;7.7;;;4.5;;
60718;SDS011;46567;51.660;5.824;2023-07-13T12:32:38;6.2;;;4.9;;
60718;SDS011;46567;51.660;5.824;2023-07-13T12:37:38;7.2;;;5.0;;
60718;SDS011;46567;51.660;5.824;2023-07-13T12:42:38;8.1;;;6.0;;
60718;SDS011;46567;51.660;5.824;2023-07-13T12:47:39;12.0;;;7.0;;
60718;SDS011;46567;51.660;5.824;2023-07-13T12:52:38;8.9;;;6.5;;
60718;SDS011;46567;51.660;5.824;2023-07-13T12:57:39;8.9;;;5.7;;
60718;SDS011;46567;51.660;5.824;2023-07-13T13:02:38;10.0;;;5.0;;
60718;SDS011;46567;51.660;5.824;2023-07-13T13:07:38;9.2;;;5.3;;
60718;SDS011;46567;51.660;5.824;2023-07-13T13:12:38;8.0;;;5.5;;
60718;SDS011;46567;51.660;5.824;2023-07-13T13:17:38;8.0;;;4.1;;
60718;SDS011;46567;51.660;5.824;2023-07-13T13:22:38;4.4;;;2.7;;
60718;SDS011;46567;51.660;5.824;2023-07-13T13:27:40;5.1;;;2.8;;
60718;SDS011;46567;51.660;5.824;2023-07-13T13:32:38;4.9;;;2.5;;
60718;SDS011;46567;51.660;5.824;2023-07-13T13:37:38;4.7;;;2.3;;
60718;SDS011;46567;51.660;5.824;2023-07-13T13:42:38;3.5;;;2.1;;
60718;SDS011;46567;51.660;5.824;2023-07-13T13:47:38;3.6;;;2.1;;
60718;SDS011;46567;51.660;5.824;2023-07-13T13:52:38;4.3;;;2.0;;
60718;SDS011;46567;51.660;5.824;2023-07-13T13:57:38;4.8;;;3.1;;
60718;SDS011;46567;51.660;5.824;2023-07-13T14:02:38;5.0;;;2.5;;
60718;SDS011;46567;51.660;5.824;2023-07-13T14:07:38;5.0;;;2.3;;
60718;SDS011;46567;51.660;5.824;2023-07-13T14:12:38;5.5;;;2.8;;
60718;SDS011;46567;51.660;5.824;2023-07-13T14:17:38;6.4;;;2.9;;
60718;SDS011;46567;51.660;5.824;2023-07-13T14:22:38;9.6;;;3.1;;
60718;SDS011;46567;51.660;5.824;2023-07-13T14:27:38;3.6;;;2.2;;
60718;SDS011;46567;51.660;5.824;2023-07-13T14:32:38;6.0;;;2.2;;
60718;SDS011;46567;51.660;5.824;2023-07-13T14:37:38;4.1;;;2.1;;
60718;SDS011;46567;51.660;5.824;2023-07-13T14:42:38;4.3;;;1.9;;
60718;SDS011;46567;51.660;5.824;2023-07-13T14:47:38;3.9;;;1.9;;
60718;SDS011;46567;51.660;5.824;2023-07-13T14:52:38;4.0;;;2.1;;
60718;SDS011;46567;51.660;5.824;2023-07-13T14:57:38;4.2;;;2.1;;
60718;SDS011;46567;51.660;5.824;2023-07-13T15:02:38;4.8;;;1.9;;
60718;SDS011;46567;51.660;5.824;2023-07-13T15:07:38;4.3;;;1.9;;
60718;SDS011;46567;51.660;5.824;2023-07-13T15:12:38;3.4;;;1.8;;
60718;SDS011;46567;51.660;5.824;2023-07-13T15:17:44;4.3;;;2.1;;
60718;SDS011;46567;51.660;5.824;2023-07-13T15:22:38;3.0;;;1.6;;
60718;SDS011;46567;51.660;5.824;2023-07-13T15:32:38;3.9;;;1.9;;
60718;SDS011;46567;51.660;5.824;2023-07-13T15:37:38;3.7;;;2.0;;
60718;SDS011;46567;51.660;5.824;2023-07-13T15:42:38;4.1;;;1.8;;
60718;SDS011;46567;51.660;5.824;2023-07-13T15:47:38;3.9;;;2.8;;
60718;SDS011;46567;51.660;5.824;2023-07-13T15:52:38;4.3;;;2.1;;
60718;SDS011;46567;51.660;5.824;2023-07-13T15:57:38;3.7;;;2.3;;
60718;SDS011;46567;51.660;5.824;2023-07-13T16:02:38;4.1;;;2.1;;
60718;SDS011;46567;51.660;5.824;2023-07-13T16:07:38;3.8;;;2.4;;
60718;SDS011;46567;51.660;5.824;2023-07-13T16:12:38;6.1;;;2.5;;
60718;SDS011;46567;51.660;5.824;2023-07-13T16:17:38;6.6;;;3.4;;
60718;SDS011;46567;51.660;5.824;2023-07-13T16:22:38;5.6;;;3.0;;
60718;SDS011;46567;51.660;5.824;2023-07-13T16:27:38;5.2;;;3.0;;
60718;SDS011;46567;51.660;5.824;2023-07-13T16:32:38;4.4;;;3.0;;
60718;SDS011;46567;51.660;5.824;2023-07-13T16:37:38;6.9;;;3.0;;
60718;SDS011;46567;51.660;5.824;2023-07-13T16:42:38;5.4;;;3.4;;
60718;SDS011;46567;51.660;5.824;2023-07-13T16:47:38;5.6;;;3.2;;
60718;SDS011;46567;51.660;5.824;2023-07-13T16:52:38;5.1;;;3.3;;
60718;SDS011;46567;51.660;5.824;2023-07-13T16:57:38;6.8;;;3.3;;
60718;SDS011;46567;51.660;5.824;2023-07-13T17:02:38;7.6;;;3.2;;
60718;SDS011;46567;51.660;5.824;2023-07-13T17:07:38;4.9;;;2.9;;
60718;SDS011;46567;51.660;5.824;2023-07-13T17:12:38;6.0;;;3.1;;
60718;SDS011;46567;51.660;5.824;2023-07-13T17:17:38;6.0;;;3.3;;
60718;SDS011;46567;51.660;5.824;2023-07-13T17:22:38;7.5;;;2.9;;
60718;SDS011;46567;51.660;5.824;2023-07-13T17:27:38;5.0;;;3.1;;
60718;SDS011;46567;51.660;5.824;2023-07-13T17:32:38;3.5;;;2.3;;
60718;SDS011;46567;51.660;5.824;2023-07-13T17:37:38;4.6;;;2.6;;
60718;SDS011;46567;51.660;5.824;2023-07-13T17:42:38;5.7;;;3.0;;
60718;SDS011;46567;51.660;5.824;2023-07-13T17:47:38;4.2;;;2.8;;
60718;SDS011;46567;51.660;5.824;2023-07-13T17:52:38;5.9;;;3.0;;
60718;SDS011;46567;51.660;5.824;2023-07-13T17:57:38;5.4;;;3.4;;
60718;SDS011;46567;51.660;5.824;2023-07-13T18:02:38;6.1;;;3.3;;
60718;SDS011;46567;51.660;5.824;2023-07-13T18:07:38;5.4;;;3.1;;
60718;SDS011;46567;51.660;5.824;2023-07-13T18:12:38;5.0;;;3.0;;
60718;SDS011;46567;51.660;5.824;2023-07-13T18:17:38;5.8;;;3.1;;
60718;SDS011;46567;51.660;5.824;2023-07-13T18:22:38;4.5;;;3.3;;
60718;SDS011;46567;51.660;5.824;2023-07-13T18:27:38;4.4;;;2.8;;
60718;SDS011;46567;51.660;5.824;2023-07-13T18:32:38;4.6;;;3.0;;
60718;SDS011;46567;51.660;5.824;2023-07-13T18:37:38;5.3;;;3.4;;
60718;SDS011;46567;51.660;5.824;2023-07-13T18:42:38;7.2;;;4.1;;
60718;SDS011;46567;51.660;5.824;2023-07-13T18:47:38;6.9;;;5.0;;
60718;SDS011;46567;51.660;5.824;2023-07-13T18:52:38;7.6;;;4.8;;
60718;SDS011;46567;51.660;5.824;2023-07-13T18:57:38;6.3;;;4.7;;
60718;SDS011;46567;51.660;5.824;2023-07-13T19:02:38;7.3;;;4.5;;
60718;SDS011;46567;51.660;5.824;2023-07-13T19:07:38;6.8;;;4.1;;
60718;SDS011;46567;51.660;5.824;2023-07-13T19:12:38;7.5;;;3.9;;
60718;SDS011;46567;51.660;5.824;2023-07-13T19:17:38;6.5;;;4.1;;
60718;SDS011;46567;51.660;5.824;2023-07-13T19:22:38;6.0;;;4.0;;
60718;SDS011;46567;51.660;5.824;2023-07-13T19:27:38;6.6;;;4.5;;
60718;SDS011;46567;51.660;5.824;2023-07-13T19:32:38;6.1;;;4.6;;
60718;SDS011;46567;51.660;5.824;2023-07-13T19:37:38;7.7;;;5.0;;
60718;SDS011;46567;51.660;5.824;2023-07-13T19:42:38;8.4;;;4.6;;
60718;SDS011;46567;51.660;5.824;2023-07-13T19:47:38;7.8;;;4.5;;
60718;SDS011;46567;51.660;5.824;2023-07-13T19:52:39;8.8;;;4.5;;
60718;SDS011;46567;51.660;5.824;2023-07-13T19:57:38;7.9;;;4.7;;
60718;SDS011;46567;51.660;5.824;2023-07-13T20:02:38;6.3;;;4.7;;
60718;SDS011;46567;51.660;5.824;2023-07-13T20:07:38;7.0;;;4.4;;
60718;SDS011;46567;51.660;5.824;2023-07-13T20:12:38;7.0;;;3.9;;
60718;SDS011;46567;51.660;5.824;2023-07-13T20:17:38;5.8;;;4.3;;
60718;SDS011;46567;51.660;5.824;2023-07-13T20:22:38;7.4;;;4.4;;
60718;SDS011;46567;51.660;5.824;2023-07-13T20:27:38;6.3;;;4.4;;
60718;SDS011;46567;51.660;5.824;2023-07-13T20:32:38;7.9;;;4.6;;
60718;SDS011;46567;51.660;5.824;2023-07-13T20:37:38;6.1;;;4.1;;
60718;SDS011;46567;51.660;5.824;2023-07-13T20:42:38;7.7;;;4.3;;
60718;SDS011;46567;51.660;5.824;2023-07-13T20:47:38;6.1;;;4.4;;
60718;SDS011;46567;51.660;5.824;2023-07-13T20:52:38;5.0;;;4.1;;
60718;SDS011;46567;51.660;5.824;2023-07-13T20:57:38;6.4;;;3.8;;
60718;SDS011;46567;51.660;5.824;2023-07-13T21:02:38;5.6;;;4.0;;
60718;SDS011;46567;51.660;5.824;2023-07-13T21:07:38;6.9;;;3.7;;
60718;SDS011;46567;51.660;5.824;2023-07-13T21:12:38;5.3;;;3.8;;
60718;SDS011;46567;51.660;5.824;2023-07-13T21:17:39;6.7;;;4.4;;
60718;SDS011;46567;51.660;5.824;2023-07-13T21:22:38;6.2;;;4.1;;
60718;SDS011;46567;51.660;5.824;2023-07-13T21:27:38;7.5;;;4.3;;
60718;SDS011;46567;51.660;5.824;2023-07-13T21:32:38;6.5;;;4.3;;
60718;SDS011;46567;51.660;5.824;2023-07-13T21:37:38;7.4;;;4.2;;
60718;SDS011;46567;51.660;5.824;2023-07-13T21:42:38;6.2;;;4.3;;
60718;SDS011;46567;51.660;5.824;2023-07-13T21:47:38;6.9;;;4.9;;
60718;SDS011;46567;51.660;5.824;2023-07-13T21:52:38;7.5;;;5.4;;
60718;SDS011;46567;51.660;5.824;2023-07-13T21:57:38;6.8;;;4.6;;
60718;SDS011;46567;51.660;5.824;2023-07-13T22:02:38;7.4;;;5.0;;
60718;SDS011;46567;51.660;5.824;2023-07-13T22:07:38;5.8;;;4.8;;
60718;SDS011;46567;51.660;5.824;2023-07-13T22:12:38;7.2;;;5.2;;
60718;SDS011;46567;51.660;5.824;2023-07-13T22:17:40;7.3;;;5.0;;
60718;SDS011;46567;51.660;5.824;2023-07-13T22:22:38;8.1;;;6.0;;
60718;SDS011;46567;51.660;5.824;2023-07-13T22:27:38;9.9;;;6.3;;
60718;SDS011;46567;51.660;5.824;2023-07-13T22:32:38;9.0;;;6.5;;
60718;SDS011;46567;51.660;5.824;2023-07-13T22:42:38;9.3;;;6.8;;
60718;SDS011;46567;51.660;5.824;2023-07-13T22:47:38;8.2;;;5.8;;
60718;SDS011;46567;51.660;5.824;2023-07-13T22:52:38;10.0;;;5.9;;
60718;SDS011;46567;51.660;5.824;2023-07-13T22:57:38;8.9;;;6.1;;
60718;SDS011;46567;51.660;5.824;2023-07-13T23:02:38;8.2;;;6.0;;
60718;SDS011;46567;51.660;5.824;2023-07-13T23:07:38;7.5;;;6.3;;
60718;SDS011;46567;51.660;5.824;2023-07-13T23:12:38;7.5;;;6.4;;
60718;SDS011;46567;51.660;5.824;2023-07-13T23:17:39;8.4;;;6.7;;
60718;SDS011;46567;51.660;5.824;2023-07-13T23:22:38;8.4;;;7.4;;
60718;SDS011;46567;51.660;5.824;2023-07-13T23:27:38;9.1;;;8.2;;
60718;SDS011;46567;51.660;5.824;2023-07-13T23:32:38;10.8;;;7.9;;
60718;SDS011;46567;51.660;5.824;2023-07-13T23:37:38;10.5;;;8.6;;
60718;SDS011;46567;51.660;5.824;2023-07-13T23:42:38;12.6;;;9.2;;
60718;SDS011;46567;51.660;5.824;2023-07-13T23:47:38;10.2;;;8.9;;
60718;SDS011;46567;51.660;5.824;2023-07-13T23:52:38;11.5;;;9.8;;
60718;SDS011;46567;51.660;5.824;2023-07-13T23:57:38;10.9;;;8.8;;
